sensor_id;sensor_type;location;lat;lon;timestamp;P1;durP1;ratioP1;P2;durP2;ratioP2
80185;SDS011;69904;52.122;5.422;2023-07-02T00:04:43;6.60;;;2.55;;
80185;SDS011;69904;52.122;5.422;2023-07-02T00:07:09;6.85;;;2.40;;
80185;SDS011;69904;52.122;5.422;2023-07-02T00:09:36;6.22;;;2.78;;
80185;SDS011;69904;52.122;5.422;2023-07-02T00:12:03;6.90;;;2.40;;
80185;SDS011;69904;52.122;5.422;2023-07-02T00:14:29;7.55;;;2.70;;
80185;SDS011;69904;52.122;5.422;2023-07-02T00:16:56;7.32;;;2.70;;
80185;SDS011;69904;52.122;5.422;2023-07-02T00:21:49;7.50;;;2.42;;
80185;SDS011;69904;52.122;5.422;2023-07-02T00:24:15;7.72;;;2.47;;
80185;SDS011;69904;52.122;5.422;2023-07-02T00:26:42;10.25;;;2.88;;
80185;SDS011;69904;52.122;5.422;2023-07-02T00:29:08;4.72;;;2.03;;
80185;SDS011;69904;52.122;5.422;2023-07-02T00:34:02;10.00;;;2.88;;
80185;SDS011;69904;52.122;5.422;2023-07-02T00:36:30;7.05;;;2.55;;
80185;SDS011;69904;52.122;5.422;2023-07-02T00:38:57;13.80;;;2.90;;
80185;SDS011;69904;52.122;5.422;2023-07-02T00:41:24;7.55;;;2.63;;
80185;SDS011;69904;52.122;5.422;2023-07-02T00:43:52;8.00;;;1.92;;
80185;SDS011;69904;52.122;5.422;2023-07-02T00:46:21;4.32;;;1.95;;
80185;SDS011;69904;52.122;5.422;2023-07-02T00:48:52;6.47;;;2.58;;
80185;SDS011;69904;52.122;5.422;2023-07-02T00:51:20;7.53;;;2.55;;
80185;SDS011;69904;52.122;5.422;2023-07-02T00:53:52;6.15;;;2.47;;
80185;SDS011;69904;52.122;5.422;2023-07-02T00:56:21;4.65;;;2.42;;
80185;SDS011;69904;52.122;5.422;2023-07-02T00:58:49;4.55;;;2.17;;
80185;SDS011;69904;52.122;5.422;2023-07-02T01:01:17;7.70;;;2.92;;
80185;SDS011;69904;52.122;5.422;2023-07-02T01:03:58;5.70;;;2.97;;
80185;SDS011;69904;52.122;5.422;2023-07-02T01:06:27;7.32;;;2.20;;
80185;SDS011;69904;52.122;5.422;2023-07-02T01:08:55;10.20;;;2.38;;
80185;SDS011;69904;52.122;5.422;2023-07-02T01:11:26;6.78;;;2.42;;
80185;SDS011;69904;52.122;5.422;2023-07-02T01:13:59;6.18;;;2.38;;
80185;SDS011;69904;52.122;5.422;2023-07-02T01:16:29;9.18;;;2.60;;
80185;SDS011;69904;52.122;5.422;2023-07-02T01:19:04;7.43;;;2.33;;
80185;SDS011;69904;52.122;5.422;2023-07-02T01:21:35;6.60;;;2.72;;
80185;SDS011;69904;52.122;5.422;2023-07-02T01:24:02;8.98;;;2.90;;
80185;SDS011;69904;52.122;5.422;2023-07-02T01:26:30;7.63;;;2.75;;
80185;SDS011;69904;52.122;5.422;2023-07-02T01:29:13;7.95;;;2.00;;
80185;SDS011;69904;52.122;5.422;2023-07-02T01:31:42;10.40;;;2.65;;
80185;SDS011;69904;52.122;5.422;2023-07-02T01:34:09;5.03;;;2.30;;
80185;SDS011;69904;52.122;5.422;2023-07-02T01:36:37;7.72;;;2.83;;
80185;SDS011;69904;52.122;5.422;2023-07-02T01:39:04;7.53;;;3.00;;
80185;SDS011;69904;52.122;5.422;2023-07-02T01:41:37;7.63;;;2.70;;
80185;SDS011;69904;52.122;5.422;2023-07-02T01:44:09;8.65;;;2.80;;
80185;SDS011;69904;52.122;5.422;2023-07-02T01:46:36;7.88;;;2.92;;
80185;SDS011;69904;52.122;5.422;2023-07-02T01:49:03;6.57;;;2.80;;
80185;SDS011;69904;52.122;5.422;2023-07-02T01:51:29;6.00;;;2.35;;
80185;SDS011;69904;52.122;5.422;2023-07-02T01:53:56;9.80;;;2.92;;
80185;SDS011;69904;52.122;5.422;2023-07-02T01:56:22;11.93;;;3.72;;
80185;SDS011;69904;52.122;5.422;2023-07-02T01:58:49;14.73;;;3.08;;
80185;SDS011;69904;52.122;5.422;2023-07-02T02:01:15;11.65;;;3.40;;
80185;SDS011;69904;52.122;5.422;2023-07-02T02:03:42;11.18;;;3.35;;
80185;SDS011;69904;52.122;5.422;2023-07-02T02:06:09;7.35;;;2.90;;
80185;SDS011;69904;52.122;5.422;2023-07-02T02:08:35;8.07;;;2.80;;
80185;SDS011;69904;52.122;5.422;2023-07-02T02:11:01;7.78;;;3.83;;
80185;SDS011;69904;52.122;5.422;2023-07-02T02:13:28;7.90;;;3.50;;
80185;SDS011;69904;52.122;5.422;2023-07-02T02:15:54;10.85;;;3.38;;
80185;SDS011;69904;52.122;5.422;2023-07-02T02:18:21;9.13;;;3.60;;
80185;SDS011;69904;52.122;5.422;2023-07-02T02:20:48;6.60;;;2.83;;
80185;SDS011;69904;52.122;5.422;2023-07-02T02:23:15;7.88;;;3.17;;
80185;SDS011;69904;52.122;5.422;2023-07-02T02:25:41;7.03;;;3.03;;
80185;SDS011;69904;52.122;5.422;2023-07-02T02:28:08;9.07;;;3.50;;
80185;SDS011;69904;52.122;5.422;2023-07-02T02:30:34;12.52;;;3.47;;
80185;SDS011;69904;52.122;5.422;2023-07-02T02:33:01;9.23;;;3.30;;
80185;SDS011;69904;52.122;5.422;2023-07-02T02:35:27;10.00;;;3.25;;
80185;SDS011;69904;52.122;5.422;2023-07-02T02:37:54;11.90;;;3.45;;
80185;SDS011;69904;52.122;5.422;2023-07-02T02:40:20;8.32;;;3.63;;
80185;SDS011;69904;52.122;5.422;2023-07-02T02:42:47;7.47;;;2.85;;
80185;SDS011;69904;52.122;5.422;2023-07-02T02:45:13;9.32;;;3.38;;
80185;SDS011;69904;52.122;5.422;2023-07-02T02:47:40;8.77;;;2.83;;
80185;SDS011;69904;52.122;5.422;2023-07-02T02:50:07;14.82;;;3.88;;
80185;SDS011;69904;52.122;5.422;2023-07-02T02:52:34;12.13;;;3.72;;
80185;SDS011;69904;52.122;5.422;2023-07-02T02:55:00;14.95;;;3.90;;
80185;SDS011;69904;52.122;5.422;2023-07-02T02:57:26;10.18;;;3.40;;
80185;SDS011;69904;52.122;5.422;2023-07-02T02:59:53;13.50;;;3.80;;
80185;SDS011;69904;52.122;5.422;2023-07-02T03:02:19;14.60;;;3.20;;
80185;SDS011;69904;52.122;5.422;2023-07-02T03:04:46;7.03;;;3.05;;
80185;SDS011;69904;52.122;5.422;2023-07-02T03:07:15;7.60;;;3.38;;
80185;SDS011;69904;52.122;5.422;2023-07-02T03:09:42;9.30;;;3.53;;
80185;SDS011;69904;52.122;5.422;2023-07-02T03:12:09;14.80;;;3.42;;
80185;SDS011;69904;52.122;5.422;2023-07-02T03:17:02;8.07;;;3.50;;
80185;SDS011;69904;52.122;5.422;2023-07-02T03:19:29;10.30;;;3.20;;
80185;SDS011;69904;52.122;5.422;2023-07-02T03:21:55;11.00;;;3.08;;
80185;SDS011;69904;52.122;5.422;2023-07-02T03:24:22;10.18;;;3.58;;
80185;SDS011;69904;52.122;5.422;2023-07-02T03:26:48;9.82;;;4.20;;
80185;SDS011;69904;52.122;5.422;2023-07-02T03:29:15;15.02;;;3.70;;
80185;SDS011;69904;52.122;5.422;2023-07-02T03:31:42;9.77;;;3.83;;
80185;SDS011;69904;52.122;5.422;2023-07-02T03:34:09;10.85;;;4.00;;
80185;SDS011;69904;52.122;5.422;2023-07-02T03:36:36;13.63;;;4.30;;
80185;SDS011;69904;52.122;5.422;2023-07-02T03:39:03;10.50;;;3.42;;
80185;SDS011;69904;52.122;5.422;2023-07-02T03:41:34;11.52;;;3.72;;
80185;SDS011;69904;52.122;5.422;2023-07-02T03:44:00;11.10;;;3.72;;
80185;SDS011;69904;52.122;5.422;2023-07-02T03:46:27;9.90;;;3.90;;
80185;SDS011;69904;52.122;5.422;2023-07-02T03:48:53;10.52;;;3.55;;
80185;SDS011;69904;52.122;5.422;2023-07-02T03:51:20;11.75;;;3.63;;
80185;SDS011;69904;52.122;5.422;2023-07-02T03:53:46;10.15;;;3.72;;
80185;SDS011;69904;52.122;5.422;2023-07-02T03:56:13;12.80;;;3.28;;
80185;SDS011;69904;52.122;5.422;2023-07-02T03:58:40;11.13;;;4.30;;
80185;SDS011;69904;52.122;5.422;2023-07-02T04:01:06;11.07;;;3.67;;
80185;SDS011;69904;52.122;5.422;2023-07-02T04:03:33;8.65;;;3.33;;
80185;SDS011;69904;52.122;5.422;2023-07-02T04:05:59;10.82;;;4.30;;
80185;SDS011;69904;52.122;5.422;2023-07-02T04:08:26;11.10;;;3.50;;
80185;SDS011;69904;52.122;5.422;2023-07-02T04:10:54;13.52;;;4.00;;
80185;SDS011;69904;52.122;5.422;2023-07-02T04:13:20;10.30;;;3.83;;
80185;SDS011;69904;52.122;5.422;2023-07-02T04:15:47;15.65;;;4.13;;
80185;SDS011;69904;52.122;5.422;2023-07-02T04:18:13;12.75;;;4.55;;
80185;SDS011;69904;52.122;5.422;2023-07-02T04:20:40;11.20;;;3.80;;
80185;SDS011;69904;52.122;5.422;2023-07-02T04:23:06;8.43;;;3.38;;
80185;SDS011;69904;52.122;5.422;2023-07-02T04:25:33;8.15;;;3.38;;
80185;SDS011;69904;52.122;5.422;2023-07-02T04:28:19;12.00;;;4.32;;
80185;SDS011;69904;52.122;5.422;2023-07-02T04:30:46;10.73;;;4.22;;
80185;SDS011;69904;52.122;5.422;2023-07-02T04:33:16;10.73;;;3.83;;
80185;SDS011;69904;52.122;5.422;2023-07-02T04:35:43;13.95;;;4.45;;
80185;SDS011;69904;52.122;5.422;2023-07-02T04:38:10;12.25;;;3.53;;
80185;SDS011;69904;52.122;5.422;2023-07-02T04:40:38;11.73;;;3.85;;
80185;SDS011;69904;52.122;5.422;2023-07-02T04:43:05;9.02;;;4.00;;
80185;SDS011;69904;52.122;5.422;2023-07-02T04:45:32;10.23;;;3.88;;
80185;SDS011;69904;52.122;5.422;2023-07-02T04:48:03;10.38;;;3.83;;
80185;SDS011;69904;52.122;5.422;2023-07-02T04:50:30;10.80;;;3.65;;
80185;SDS011;69904;52.122;5.422;2023-07-02T04:52:56;9.63;;;3.25;;
80185;SDS011;69904;52.122;5.422;2023-07-02T04:55:23;13.23;;;4.03;;
80185;SDS011;69904;52.122;5.422;2023-07-02T04:57:49;10.98;;;3.85;;
80185;SDS011;69904;52.122;5.422;2023-07-02T05:00:16;13.88;;;3.63;;
80185;SDS011;69904;52.122;5.422;2023-07-02T05:02:43;10.40;;;3.80;;
80185;SDS011;69904;52.122;5.422;2023-07-02T05:05:09;9.88;;;4.05;;
80185;SDS011;69904;52.122;5.422;2023-07-02T05:07:36;11.35;;;4.05;;
80185;SDS011;69904;52.122;5.422;2023-07-02T05:10:02;11.63;;;3.80;;
80185;SDS011;69904;52.122;5.422;2023-07-02T05:12:29;14.75;;;4.40;;
80185;SDS011;69904;52.122;5.422;2023-07-02T05:17:22;11.38;;;4.05;;
80185;SDS011;69904;52.122;5.422;2023-07-02T05:19:49;13.85;;;3.70;;
80185;SDS011;69904;52.122;5.422;2023-07-02T05:22:16;12.45;;;4.10;;
80185;SDS011;69904;52.122;5.422;2023-07-02T05:24:45;11.35;;;3.72;;
80185;SDS011;69904;52.122;5.422;2023-07-02T05:27:12;9.48;;;3.53;;
80185;SDS011;69904;52.122;5.422;2023-07-02T05:29:39;11.65;;;3.63;;
80185;SDS011;69904;52.122;5.422;2023-07-02T05:32:05;15.77;;;4.40;;
80185;SDS011;69904;52.122;5.422;2023-07-02T05:34:33;12.32;;;3.78;;
80185;SDS011;69904;52.122;5.422;2023-07-02T05:37:00;12.43;;;3.45;;
80185;SDS011;69904;52.122;5.422;2023-07-02T05:39:26;23.15;;;5.43;;
80185;SDS011;69904;52.122;5.422;2023-07-02T05:41:53;14.43;;;4.25;;
80185;SDS011;69904;52.122;5.422;2023-07-02T05:44:19;11.98;;;3.40;;
80185;SDS011;69904;52.122;5.422;2023-07-02T05:46:46;10.45;;;3.78;;
80185;SDS011;69904;52.122;5.422;2023-07-02T05:49:15;10.43;;;3.15;;
80185;SDS011;69904;52.122;5.422;2023-07-02T05:51:42;13.88;;;4.13;;
80185;SDS011;69904;52.122;5.422;2023-07-02T05:54:08;11.65;;;3.42;;
80185;SDS011;69904;52.122;5.422;2023-07-02T05:56:35;13.98;;;4.15;;
80185;SDS011;69904;52.122;5.422;2023-07-02T05:59:01;13.48;;;3.25;;
80185;SDS011;69904;52.122;5.422;2023-07-02T06:01:28;13.38;;;3.95;;
80185;SDS011;69904;52.122;5.422;2023-07-02T06:03:54;11.98;;;2.85;;
80185;SDS011;69904;52.122;5.422;2023-07-02T06:06:21;11.93;;;3.58;;
80185;SDS011;69904;52.122;5.422;2023-07-02T06:08:51;10.05;;;3.08;;
80185;SDS011;69904;52.122;5.422;2023-07-02T06:11:17;11.23;;;3.58;;
80185;SDS011;69904;52.122;5.422;2023-07-02T06:13:44;11.50;;;3.47;;
80185;SDS011;69904;52.122;5.422;2023-07-02T06:16:10;14.05;;;3.25;;
80185;SDS011;69904;52.122;5.422;2023-07-02T06:18:37;11.88;;;3.15;;
80185;SDS011;69904;52.122;5.422;2023-07-02T06:21:04;14.07;;;3.47;;
80185;SDS011;69904;52.122;5.422;2023-07-02T06:23:38;12.27;;;3.63;;
80185;SDS011;69904;52.122;5.422;2023-07-02T06:26:06;11.80;;;3.63;;
80185;SDS011;69904;52.122;5.422;2023-07-02T06:28:32;7.80;;;3.00;;
80185;SDS011;69904;52.122;5.422;2023-07-02T06:30:59;11.57;;;3.42;;
80185;SDS011;69904;52.122;5.422;2023-07-02T06:33:26;13.57;;;3.35;;
80185;SDS011;69904;52.122;5.422;2023-07-02T06:35:52;9.63;;;2.85;;
80185;SDS011;69904;52.122;5.422;2023-07-02T06:38:19;11.68;;;3.35;;
80185;SDS011;69904;52.122;5.422;2023-07-02T06:40:45;10.02;;;3.30;;
80185;SDS011;69904;52.122;5.422;2023-07-02T06:43:12;8.60;;;3.33;;
80185;SDS011;69904;52.122;5.422;2023-07-02T06:45:38;11.75;;;3.25;;
80185;SDS011;69904;52.122;5.422;2023-07-02T06:48:05;11.70;;;3.47;;
80185;SDS011;69904;52.122;5.422;2023-07-02T06:50:31;11.02;;;2.90;;
80185;SDS011;69904;52.122;5.422;2023-07-02T06:56:23;5.82;;;2.22;;
80185;SDS011;69904;52.122;5.422;2023-07-02T06:58:50;9.88;;;2.80;;
80185;SDS011;69904;52.122;5.422;2023-07-02T07:01:16;11.88;;;3.25;;
80185;SDS011;69904;52.122;5.422;2023-07-02T07:03:43;9.18;;;2.70;;
80185;SDS011;69904;52.122;5.422;2023-07-02T07:06:09;8.05;;;2.38;;
80185;SDS011;69904;52.122;5.422;2023-07-02T07:08:37;12.27;;;2.97;;
80185;SDS011;69904;52.122;5.422;2023-07-02T07:11:05;11.13;;;2.35;;
80185;SDS011;69904;52.122;5.422;2023-07-02T07:13:31;9.95;;;2.20;;
80185;SDS011;69904;52.122;5.422;2023-07-02T07:15:58;7.57;;;2.33;;
80185;SDS011;69904;52.122;5.422;2023-07-02T07:18:24;7.63;;;2.85;;
80185;SDS011;69904;52.122;5.422;2023-07-02T07:20:51;7.88;;;3.25;;
80185;SDS011;69904;52.122;5.422;2023-07-02T07:23:18;9.93;;;2.80;;
80185;SDS011;69904;52.122;5.422;2023-07-02T07:25:45;7.45;;;2.58;;
80185;SDS011;69904;52.122;5.422;2023-07-02T07:28:12;12.88;;;3.10;;
80185;SDS011;69904;52.122;5.422;2023-07-02T07:30:42;9.68;;;2.75;;
80185;SDS011;69904;52.122;5.422;2023-07-02T07:33:09;7.93;;;3.22;;
80185;SDS011;69904;52.122;5.422;2023-07-02T07:35:36;10.90;;;2.65;;
80185;SDS011;69904;52.122;5.422;2023-07-02T07:38:03;8.98;;;3.17;;
80185;SDS011;69904;52.122;5.422;2023-07-02T07:40:29;8.52;;;2.13;;
80185;SDS011;69904;52.122;5.422;2023-07-02T07:42:56;10.05;;;2.85;;
80185;SDS011;69904;52.122;5.422;2023-07-02T07:45:22;7.22;;;2.58;;
80185;SDS011;69904;52.122;5.422;2023-07-02T07:47:49;10.23;;;2.92;;
80185;SDS011;69904;52.122;5.422;2023-07-02T07:50:16;6.43;;;2.30;;
80185;SDS011;69904;52.122;5.422;2023-07-02T07:52:42;7.90;;;2.03;;
80185;SDS011;69904;52.122;5.422;2023-07-02T07:55:09;9.50;;;2.40;;
80185;SDS011;69904;52.122;5.422;2023-07-02T07:57:36;7.18;;;2.55;;
80185;SDS011;69904;52.122;5.422;2023-07-02T08:00:03;6.57;;;2.42;;
80185;SDS011;69904;52.122;5.422;2023-07-02T08:02:37;5.40;;;2.22;;
80185;SDS011;69904;52.122;5.422;2023-07-02T08:05:04;9.57;;;2.38;;
80185;SDS011;69904;52.122;5.422;2023-07-02T08:07:31;8.25;;;2.70;;
80185;SDS011;69904;52.122;5.422;2023-07-02T08:09:59;7.13;;;1.92;;
80185;SDS011;69904;52.122;5.422;2023-07-02T08:12:26;5.10;;;1.95;;
80185;SDS011;69904;52.122;5.422;2023-07-02T08:14:55;7.60;;;2.40;;
80185;SDS011;69904;52.122;5.422;2023-07-02T08:17:22;5.35;;;2.25;;
80185;SDS011;69904;52.122;5.422;2023-07-02T08:19:49;8.48;;;2.60;;
80185;SDS011;69904;52.122;5.422;2023-07-02T08:22:15;3.55;;;2.03;;
80185;SDS011;69904;52.122;5.422;2023-07-02T08:24:41;7.32;;;2.45;;
80185;SDS011;69904;52.122;5.422;2023-07-02T08:27:09;10.27;;;2.67;;
80185;SDS011;69904;52.122;5.422;2023-07-02T08:29:39;14.00;;;3.28;;
80185;SDS011;69904;52.122;5.422;2023-07-02T08:32:06;6.30;;;1.75;;
80185;SDS011;69904;52.122;5.422;2023-07-02T08:34:33;6.53;;;2.63;;
80185;SDS011;69904;52.122;5.422;2023-07-02T08:36:59;6.07;;;2.55;;
80185;SDS011;69904;52.122;5.422;2023-07-02T08:39:26;6.90;;;2.10;;
80185;SDS011;69904;52.122;5.422;2023-07-02T08:41:52;6.78;;;1.58;;
80185;SDS011;69904;52.122;5.422;2023-07-02T08:44:19;8.80;;;2.15;;
80185;SDS011;69904;52.122;5.422;2023-07-02T08:46:48;7.35;;;2.22;;
80185;SDS011;69904;52.122;5.422;2023-07-02T08:49:19;7.95;;;2.03;;
80185;SDS011;69904;52.122;5.422;2023-07-02T08:51:46;4.53;;;1.55;;
80185;SDS011;69904;52.122;5.422;2023-07-02T08:54:12;5.35;;;2.30;;
80185;SDS011;69904;52.122;5.422;2023-07-02T08:56:40;7.18;;;1.95;;
80185;SDS011;69904;52.122;5.422;2023-07-02T08:59:07;8.50;;;2.30;;
80185;SDS011;69904;52.122;5.422;2023-07-02T09:01:44;5.90;;;2.33;;
80185;SDS011;69904;52.122;5.422;2023-07-02T09:04:15;4.22;;;1.63;;
80185;SDS011;69904;52.122;5.422;2023-07-02T09:06:46;6.53;;;2.35;;
80185;SDS011;69904;52.122;5.422;2023-07-02T09:09:14;5.13;;;1.63;;
80185;SDS011;69904;52.122;5.422;2023-07-02T09:11:47;7.03;;;2.00;;
80185;SDS011;69904;52.122;5.422;2023-07-02T09:14:28;8.32;;;2.60;;
80185;SDS011;69904;52.122;5.422;2023-07-02T09:17:08;7.40;;;2.13;;
80185;SDS011;69904;52.122;5.422;2023-07-02T09:22:02;7.22;;;1.55;;
80185;SDS011;69904;52.122;5.422;2023-07-02T09:24:30;6.38;;;1.80;;
80185;SDS011;69904;52.122;5.422;2023-07-02T09:26:58;8.40;;;2.60;;
80185;SDS011;69904;52.122;5.422;2023-07-02T09:29:27;2.22;;;1.23;;
80185;SDS011;69904;52.122;5.422;2023-07-02T09:31:59;5.90;;;1.70;;
80185;SDS011;69904;52.122;5.422;2023-07-02T09:34:47;7.65;;;1.65;;
80185;SDS011;69904;52.122;5.422;2023-07-02T09:37:14;5.38;;;1.70;;
80185;SDS011;69904;52.122;5.422;2023-07-02T09:39:40;5.90;;;1.75;;
80185;SDS011;69904;52.122;5.422;2023-07-02T09:42:07;5.40;;;1.45;;
80185;SDS011;69904;52.122;5.422;2023-07-02T09:44:36;7.53;;;2.30;;
80185;SDS011;69904;52.122;5.422;2023-07-02T09:47:04;5.18;;;1.90;;
80185;SDS011;69904;52.122;5.422;2023-07-02T09:49:35;4.30;;;1.35;;
80185;SDS011;69904;52.122;5.422;2023-07-02T09:52:04;4.38;;;1.70;;
80185;SDS011;69904;52.122;5.422;2023-07-02T09:54:32;4.30;;;1.27;;
80185;SDS011;69904;52.122;5.422;2023-07-02T09:56:59;5.45;;;1.45;;
80185;SDS011;69904;52.122;5.422;2023-07-02T09:59:27;3.92;;;1.10;;
80185;SDS011;69904;52.122;5.422;2023-07-02T10:01:55;2.80;;;1.10;;
80185;SDS011;69904;52.122;5.422;2023-07-02T10:04:22;5.47;;;1.42;;
80185;SDS011;69904;52.122;5.422;2023-07-02T10:06:55;4.88;;;1.30;;
80185;SDS011;69904;52.122;5.422;2023-07-02T10:09:36;6.28;;;1.60;;
80185;SDS011;69904;52.122;5.422;2023-07-02T10:14:51;5.10;;;1.17;;
80185;SDS011;69904;52.122;5.422;2023-07-02T10:19:55;4.07;;;1.55;;
80185;SDS011;69904;52.122;5.422;2023-07-02T10:22:23;3.75;;;1.45;;
80185;SDS011;69904;52.122;5.422;2023-07-02T10:24:59;6.25;;;1.63;;
80185;SDS011;69904;52.122;5.422;2023-07-02T10:30:03;5.30;;;0.93;;
80185;SDS011;69904;52.122;5.422;2023-07-02T10:32:32;3.92;;;1.30;;
80185;SDS011;69904;52.122;5.422;2023-07-02T10:35:13;4.43;;;1.42;;
80185;SDS011;69904;52.122;5.422;2023-07-02T10:37:43;4.13;;;1.40;;
80185;SDS011;69904;52.122;5.422;2023-07-02T10:40:10;4.30;;;1.33;;
80185;SDS011;69904;52.122;5.422;2023-07-02T10:45:18;3.40;;;1.55;;
80185;SDS011;69904;52.122;5.422;2023-07-02T10:47:45;5.10;;;1.50;;
80185;SDS011;69904;52.122;5.422;2023-07-02T10:50:13;4.72;;;1.67;;
80185;SDS011;69904;52.122;5.422;2023-07-02T10:52:47;3.53;;;1.80;;
80185;SDS011;69904;52.122;5.422;2023-07-02T10:55:17;2.30;;;1.20;;
80185;SDS011;69904;52.122;5.422;2023-07-02T10:57:44;3.92;;;1.60;;
80185;SDS011;69904;52.122;5.422;2023-07-02T11:02:37;4.95;;;1.80;;
80185;SDS011;69904;52.122;5.422;2023-07-02T11:05:05;3.85;;;1.40;;
80185;SDS011;69904;52.122;5.422;2023-07-02T11:07:39;4.13;;;1.30;;
80185;SDS011;69904;52.122;5.422;2023-07-02T11:10:07;3.20;;;1.48;;
80185;SDS011;69904;52.122;5.422;2023-07-02T11:12:35;4.97;;;1.38;;
80185;SDS011;69904;52.122;5.422;2023-07-02T11:15:15;4.15;;;1.60;;
80185;SDS011;69904;52.122;5.422;2023-07-02T11:17:46;5.65;;;1.30;;
80185;SDS011;69904;52.122;5.422;2023-07-02T11:20:13;5.75;;;2.20;;
80185;SDS011;69904;52.122;5.422;2023-07-02T11:22:41;5.32;;;1.77;;
80185;SDS011;69904;52.122;5.422;2023-07-02T11:25:11;4.03;;;1.65;;
80185;SDS011;69904;52.122;5.422;2023-07-02T11:27:40;4.80;;;1.77;;
80185;SDS011;69904;52.122;5.422;2023-07-02T11:30:07;2.47;;;1.45;;
80185;SDS011;69904;52.122;5.422;2023-07-02T11:32:50;5.75;;;1.80;;
80185;SDS011;69904;52.122;5.422;2023-07-02T11:35:17;5.32;;;1.63;;
80185;SDS011;69904;52.122;5.422;2023-07-02T11:37:45;5.70;;;1.77;;
80185;SDS011;69904;52.122;5.422;2023-07-02T11:40:12;5.25;;;1.88;;
80185;SDS011;69904;52.122;5.422;2023-07-02T11:42:39;4.70;;;1.83;;
80185;SDS011;69904;52.122;5.422;2023-07-02T11:45:06;4.13;;;1.48;;
80185;SDS011;69904;52.122;5.422;2023-07-02T11:47:33;6.47;;;1.67;;
80185;SDS011;69904;52.122;5.422;2023-07-02T11:52:46;5.25;;;2.10;;
80185;SDS011;69904;52.122;5.422;2023-07-02T11:55:12;5.45;;;1.85;;
80185;SDS011;69904;52.122;5.422;2023-07-02T11:57:41;4.95;;;1.67;;
80185;SDS011;69904;52.122;5.422;2023-07-02T12:02:34;4.72;;;1.92;;
80185;SDS011;69904;52.122;5.422;2023-07-02T12:05:00;5.13;;;1.67;;
80185;SDS011;69904;52.122;5.422;2023-07-02T12:07:30;4.95;;;2.03;;
80185;SDS011;69904;52.122;5.422;2023-07-02T12:12:23;4.80;;;1.65;;
80185;SDS011;69904;52.122;5.422;2023-07-02T12:17:16;5.78;;;1.77;;
80185;SDS011;69904;52.122;5.422;2023-07-02T12:22:09;7.47;;;1.95;;
80185;SDS011;69904;52.122;5.422;2023-07-02T12:27:03;4.88;;;1.60;;
80185;SDS011;69904;52.122;5.422;2023-07-02T12:29:29;4.65;;;1.77;;
80185;SDS011;69904;52.122;5.422;2023-07-02T12:34:22;4.97;;;1.98;;
80185;SDS011;69904;52.122;5.422;2023-07-02T12:39:15;4.20;;;1.80;;
80185;SDS011;69904;52.122;5.422;2023-07-02T12:41:45;4.57;;;1.60;;
80185;SDS011;69904;52.122;5.422;2023-07-02T12:44:12;5.15;;;1.80;;
80185;SDS011;69904;52.122;5.422;2023-07-02T12:49:06;4.63;;;2.20;;
80185;SDS011;69904;52.122;5.422;2023-07-02T12:54:00;6.45;;;2.38;;
80185;SDS011;69904;52.122;5.422;2023-07-02T12:56:27;5.13;;;1.95;;
80185;SDS011;69904;52.122;5.422;2023-07-02T13:01:20;9.77;;;2.30;;
80185;SDS011;69904;52.122;5.422;2023-07-02T13:03:46;4.53;;;1.70;;
80185;SDS011;69904;52.122;5.422;2023-07-02T13:06:13;4.80;;;1.77;;
80185;SDS011;69904;52.122;5.422;2023-07-02T13:08:40;5.90;;;1.92;;
80185;SDS011;69904;52.122;5.422;2023-07-02T13:11:07;3.88;;;1.92;;
80185;SDS011;69904;52.122;5.422;2023-07-02T13:13:34;5.53;;;1.80;;
80185;SDS011;69904;52.122;5.422;2023-07-02T13:16:04;5.35;;;1.75;;
80185;SDS011;69904;52.122;5.422;2023-07-02T13:18:31;3.80;;;1.63;;
80185;SDS011;69904;52.122;5.422;2023-07-02T13:20:58;4.70;;;2.05;;
80185;SDS011;69904;52.122;5.422;2023-07-02T13:23:24;6.80;;;1.83;;
80185;SDS011;69904;52.122;5.422;2023-07-02T13:25:51;6.05;;;1.80;;
80185;SDS011;69904;52.122;5.422;2023-07-02T13:28:17;5.15;;;1.80;;
80185;SDS011;69904;52.122;5.422;2023-07-02T13:30:47;5.72;;;1.75;;
80185;SDS011;69904;52.122;5.422;2023-07-02T13:33:13;5.65;;;2.10;;
80185;SDS011;69904;52.122;5.422;2023-07-02T13:38:07;8.13;;;2.10;;
80185;SDS011;69904;52.122;5.422;2023-07-02T13:43:00;4.40;;;1.73;;
80185;SDS011;69904;52.122;5.422;2023-07-02T13:45:26;6.95;;;2.00;;
80185;SDS011;69904;52.122;5.422;2023-07-02T13:50:19;7.07;;;1.95;;
80185;SDS011;69904;52.122;5.422;2023-07-02T13:52:46;3.30;;;1.67;;
80185;SDS011;69904;52.122;5.422;2023-07-02T13:55:12;4.43;;;2.00;;
80185;SDS011;69904;52.122;5.422;2023-07-02T13:57:39;6.10;;;1.92;;
80185;SDS011;69904;52.122;5.422;2023-07-02T14:00:06;5.85;;;2.08;;
80185;SDS011;69904;52.122;5.422;2023-07-02T14:02:33;7.50;;;2.30;;
80185;SDS011;69904;52.122;5.422;2023-07-02T14:04:59;5.78;;;1.73;;
80185;SDS011;69904;52.122;5.422;2023-07-02T14:07:26;7.10;;;2.45;;
80185;SDS011;69904;52.122;5.422;2023-07-02T14:12:21;7.35;;;2.00;;
80185;SDS011;69904;52.122;5.422;2023-07-02T14:14:48;5.18;;;1.90;;
80185;SDS011;69904;52.122;5.422;2023-07-02T14:19:41;4.80;;;1.90;;
80185;SDS011;69904;52.122;5.422;2023-07-02T14:22:09;7.03;;;2.53;;
80185;SDS011;69904;52.122;5.422;2023-07-02T14:27:02;7.03;;;2.22;;
80185;SDS011;69904;52.122;5.422;2023-07-02T14:29:29;5.88;;;2.47;;
80185;SDS011;69904;52.122;5.422;2023-07-02T14:34:22;8.70;;;2.05;;
80185;SDS011;69904;52.122;5.422;2023-07-02T14:36:48;8.05;;;2.60;;
80185;SDS011;69904;52.122;5.422;2023-07-02T14:39:15;6.22;;;2.60;;
80185;SDS011;69904;52.122;5.422;2023-07-02T14:41:41;5.05;;;2.03;;
80185;SDS011;69904;52.122;5.422;2023-07-02T14:46:34;8.25;;;2.38;;
80185;SDS011;69904;52.122;5.422;2023-07-02T14:49:01;6.65;;;2.25;;
80185;SDS011;69904;52.122;5.422;2023-07-02T14:51:27;4.63;;;2.05;;
80185;SDS011;69904;52.122;5.422;2023-07-02T14:53:54;5.78;;;1.85;;
80185;SDS011;69904;52.122;5.422;2023-07-02T14:56:21;6.07;;;2.33;;
80185;SDS011;69904;52.122;5.422;2023-07-02T14:58:48;5.32;;;2.38;;
80185;SDS011;69904;52.122;5.422;2023-07-02T15:03:42;6.63;;;1.75;;
80185;SDS011;69904;52.122;5.422;2023-07-02T15:06:10;7.65;;;2.25;;
80185;SDS011;69904;52.122;5.422;2023-07-02T15:08:39;3.72;;;1.30;;
80185;SDS011;69904;52.122;5.422;2023-07-02T15:11:06;5.22;;;2.03;;
80185;SDS011;69904;52.122;5.422;2023-07-02T15:13:33;6.00;;;1.70;;
80185;SDS011;69904;52.122;5.422;2023-07-02T15:16:00;5.30;;;2.17;;
80185;SDS011;69904;52.122;5.422;2023-07-02T15:20:53;4.28;;;1.88;;
80185;SDS011;69904;52.122;5.422;2023-07-02T15:23:20;4.47;;;1.70;;
80185;SDS011;69904;52.122;5.422;2023-07-02T15:25:51;4.70;;;2.17;;
80185;SDS011;69904;52.122;5.422;2023-07-02T15:28:23;5.15;;;1.85;;
80185;SDS011;69904;52.122;5.422;2023-07-02T15:30:54;4.40;;;1.70;;
80185;SDS011;69904;52.122;5.422;2023-07-02T15:33:22;3.50;;;1.45;;
80185;SDS011;69904;52.122;5.422;2023-07-02T15:35:49;5.85;;;1.98;;
80185;SDS011;69904;52.122;5.422;2023-07-02T15:38:16;6.13;;;1.58;;
80185;SDS011;69904;52.122;5.422;2023-07-02T15:40:45;4.95;;;1.63;;
80185;SDS011;69904;52.122;5.422;2023-07-02T15:43:13;4.03;;;1.80;;
80185;SDS011;69904;52.122;5.422;2023-07-02T15:45:39;4.75;;;1.60;;
80185;SDS011;69904;52.122;5.422;2023-07-02T15:48:06;3.75;;;1.83;;
80185;SDS011;69904;52.122;5.422;2023-07-02T15:50:32;4.43;;;1.95;;
80185;SDS011;69904;52.122;5.422;2023-07-02T15:52:59;5.32;;;2.30;;
80185;SDS011;69904;52.122;5.422;2023-07-02T15:55:26;4.50;;;1.90;;
80185;SDS011;69904;52.122;5.422;2023-07-02T16:00:18;4.85;;;1.70;;
80185;SDS011;69904;52.122;5.422;2023-07-02T16:02:45;4.55;;;1.77;;
80185;SDS011;69904;52.122;5.422;2023-07-02T16:05:12;7.50;;;2.30;;
80185;SDS011;69904;52.122;5.422;2023-07-02T16:07:39;6.57;;;1.95;;
80185;SDS011;69904;52.122;5.422;2023-07-02T16:10:07;5.57;;;2.33;;
80185;SDS011;69904;52.122;5.422;2023-07-02T16:12:35;5.13;;;1.77;;